createdAt,value
2023-08-14T00:00:44.220Z,69.21
2023-08-14T00:04:49.313Z,68.81
2023-08-14T00:08:53.947Z,69.34
2023-08-14T00:12:56.955Z,69.42
2023-08-14T00:17:00.285Z,68.91
2023-08-14T00:21:05.514Z,68.65
2023-08-14T00:25:10.492Z,68.68
2023-08-14T00:29:14.028Z,68.93
2023-08-14T00:33:17.438Z,68.80
2023-08-14T00:37:25.150Z,68.24
2023-08-14T00:41:28.383Z,68.98
2023-08-14T00:45:45.463Z,69.07
2023-08-14T00:49:49.826Z,68.50
2023-08-14T00:53:56.983Z,68.78
2023-08-14T00:58:00.473Z,70.23
2023-08-14T01:02:03.992Z,69.48
2023-08-14T01:06:07.401Z,69.65
2023-08-14T01:10:14.200Z,68.93
2023-08-14T01:14:22.038Z,69.67
2023-08-14T01:18:28.977Z,69.03
2023-08-14T01:22:43.337Z,68.25
2023-08-14T01:26:48.857Z,69.05
2023-08-14T01:30:52.219Z,69.34
2023-08-14T01:34:57.242Z,69.51
2023-08-14T01:39:08.150Z,68.63
2023-08-14T01:43:17.621Z,69.21
2023-08-14T01:47:23.014Z,69.02
2023-08-14T01:51:26.783Z,69.54
2023-08-14T01:55:30.364Z,69.30
2023-08-14T01:59:43.044Z,69.23
2023-08-14T02:03:46.058Z,66.37
2023-08-14T02:07:49.214Z,69.59
2023-08-14T02:11:53.118Z,69.03
2023-08-14T02:15:57.967Z,69.21
2023-08-14T02:20:01.538Z,69.79
2023-08-14T02:24:05.410Z,69.38
2023-08-14T02:28:08.757Z,69.11
2023-08-14T02:32:13.982Z,68.91
2023-08-14T02:36:17.663Z,69.35
2023-08-14T02:40:21.048Z,69.18
2023-08-14T02:44:24.421Z,69.37
2023-08-14T02:48:29.370Z,68.92
2023-08-14T02:52:32.819Z,69.18
2023-08-14T02:56:37.544Z,69.15
2023-08-14T03:00:40.938Z,69.41
2023-08-14T03:04:46.008Z,68.63
2023-08-14T03:08:49.339Z,68.62
2023-08-14T03:12:52.858Z,68.65
2023-08-14T03:16:56.110Z,68.87
2023-08-14T03:21:01.123Z,68.54
2023-08-14T03:25:05.056Z,68.56
2023-08-14T03:29:08.322Z,68.36
2023-08-14T03:33:12.295Z,68.13
2023-08-14T03:37:17.562Z,68.08
2023-08-14T03:41:21.213Z,68.59
2023-08-14T03:45:24.382Z,68.38
2023-08-14T03:49:28.186Z,68.63
2023-08-14T03:53:33.632Z,68.83
2023-08-14T03:57:38.120Z,69.64
2023-08-14T04:01:44.641Z,69.39
2023-08-14T04:05:47.805Z,69.14
2023-08-14T04:09:53.065Z,69.06
2023-08-14T04:13:56.345Z,68.99
2023-08-14T04:17:59.804Z,69.21
2023-08-14T04:22:03.155Z,68.91
2023-08-14T04:26:08.453Z,69.09
2023-08-14T04:30:12.616Z,68.88
2023-08-14T04:34:16.034Z,68.84
2023-08-14T04:38:19.708Z,68.75
2023-08-14T04:42:24.824Z,68.69
2023-08-14T04:46:38.379Z,68.31
2023-08-14T04:50:48.530Z,67.95
2023-08-14T04:54:52.462Z,67.99
2023-08-14T04:58:57.467Z,67.60
2023-08-14T05:03:00.772Z,67.63
2023-08-14T05:07:04.369Z,67.20
2023-08-14T05:11:08.960Z,66.36
2023-08-14T05:15:14.305Z,65.90
2023-08-14T05:19:17.507Z,65.76
2023-08-14T05:23:20.475Z,65.14
2023-08-14T05:27:26.705Z,65.47
2023-08-14T05:31:32.249Z,65.80
2023-08-14T05:35:35.361Z,65.85
2023-08-14T05:39:38.848Z,66.11
2023-08-14T05:43:42.392Z,66.37
2023-08-14T05:47:47.284Z,66.79
2023-08-14T05:51:50.716Z,67.25
2023-08-14T05:55:53.929Z,67.44
2023-08-14T05:59:57.246Z,68.33
2023-08-14T06:04:02.469Z,68.68
2023-08-14T06:08:07.709Z,69.28
2023-08-14T06:12:11.092Z,68.18
2023-08-14T06:16:15.193Z,67.38
2023-08-14T06:20:20.165Z,67.26
2023-08-14T06:24:24.232Z,67.36
2023-08-14T06:28:27.675Z,66.57
2023-08-14T06:32:31.019Z,65.88
2023-08-14T06:36:35.866Z,65.45
2023-08-14T06:40:39.487Z,64.83
2023-08-14T06:44:42.716Z,64.09
2023-08-14T06:48:48.129Z,64.28
2023-08-14T06:52:54.390Z,63.70
2023-08-14T06:56:57.853Z,62.87
2023-08-14T07:01:01.677Z,62.96
2023-08-14T07:05:08.559Z,61.30
2023-08-14T07:09:17.556Z,62.38
2023-08-14T07:13:20.827Z,60.11
2023-08-14T07:17:24.170Z,57.09
2023-08-14T07:21:29.050Z,57.02
2023-08-14T07:25:34.148Z,55.71
2023-08-14T07:29:37.616Z,53.06
2023-08-14T07:33:40.687Z,51.14
2023-08-14T07:37:44.178Z,50.77
2023-08-14T07:41:54.380Z,50.32
2023-08-14T07:45:57.738Z,47.46
2023-08-14T07:50:01.335Z,46.18
2023-08-14T07:54:06.271Z,43.34
2023-08-14T07:58:11.061Z,45.15
2023-08-14T08:02:14.476Z,42.35
2023-08-14T08:06:17.642Z,42.48
2023-08-14T08:10:21.245Z,41.18
2023-08-14T08:14:25.940Z,41.54
2023-08-14T08:18:29.155Z,40.01
2023-08-14T08:22:32.378Z,40.74
2023-08-14T08:26:35.765Z,42.33
2023-08-14T08:30:40.384Z,39.74
2023-08-14T08:34:43.787Z,39.40
2023-08-14T08:38:47.833Z,39.82
2023-08-14T08:42:51.616Z,39.59
2023-08-14T08:47:00.482Z,42.68
2023-08-14T08:51:04.556Z,38.64
2023-08-14T08:55:09.444Z,39.67
2023-08-14T08:59:13.262Z,38.05
2023-08-14T09:03:19.652Z,39.47
2023-08-14T09:07:23.825Z,38.98
2023-08-14T09:11:27.266Z,37.99
2023-08-14T09:15:33.800Z,40.63
2023-08-14T09:19:40.359Z,38.65
2023-08-14T09:23:44.203Z,39.29
2023-08-14T09:27:47.905Z,39.27
2023-08-14T09:31:56.116Z,37.82
2023-08-14T09:36:01.279Z,38.43
2023-08-14T09:40:14.430Z,39.87
2023-08-14T09:44:20.520Z,37.98
2023-08-14T09:48:26.505Z,37.92
2023-08-14T09:52:31.589Z,37.69
2023-08-14T09:56:35.226Z,37.70
2023-08-14T10:00:40.167Z,36.60
2023-08-14T10:04:45.730Z,36.12
2023-08-14T10:08:53.472Z,39.08
2023-08-14T10:13:01.329Z,36.73
2023-08-14T10:17:09.114Z,38.10
2023-08-14T10:21:15.299Z,39.39
2023-08-14T10:25:21.066Z,36.34
2023-08-14T10:29:24.963Z,38.43
2023-08-14T10:37:56.285Z,38.14
2023-08-14T10:42:14.948Z,38.06
2023-08-14T10:46:18.885Z,38.19
2023-08-14T10:50:23.747Z,35.65
2023-08-14T10:54:41.485Z,36.84
2023-08-14T10:58:50.077Z,36.42
2023-08-14T11:02:56.084Z,37.44
2023-08-14T11:07:10.400Z,38.53
2023-08-14T11:11:13.805Z,37.90
2023-08-14T11:23:45.977Z,35.73
2023-08-14T11:27:54.826Z,38.32
2023-08-14T11:31:59.218Z,34.75
2023-08-14T11:36:10.901Z,35.72
2023-08-14T11:40:18.285Z,35.61
2023-08-14T11:44:24.501Z,35.48
2023-08-14T11:48:28.128Z,34.92
2023-08-14T11:52:32.147Z,35.44
2023-08-14T11:56:37.393Z,35.96
2023-08-14T12:00:43.214Z,35.94
2023-08-14T12:04:46.371Z,35.23
2023-08-14T12:08:49.534Z,36.78
2023-08-14T12:12:56.131Z,36.39
2023-08-14T12:17:12.926Z,36.35
2023-08-14T12:21:19.540Z,35.42
2023-08-14T12:25:23.156Z,35.93
2023-08-14T12:29:31.401Z,35.90
2023-08-14T12:33:34.648Z,36.46
2023-08-14T12:37:37.884Z,36.83
2023-08-14T12:41:43.408Z,36.99
2023-08-14T12:45:48.409Z,36.59
2023-08-14T12:49:53.130Z,37.84
2023-08-14T12:53:56.599Z,36.27
2023-08-14T12:57:59.680Z,36.24
2023-08-14T13:02:05.422Z,35.70
2023-08-14T13:06:09.006Z,35.60
2023-08-14T13:10:14.136Z,35.07
2023-08-14T13:14:17.322Z,35.22
2023-08-14T13:18:22.959Z,35.66
2023-08-14T13:22:26.624Z,36.32
2023-08-14T13:26:32.617Z,35.05
2023-08-14T13:30:37.715Z,34.61
2023-08-14T13:34:43.477Z,35.43
2023-08-14T13:38:47.636Z,35.60
2023-08-14T13:42:51.349Z,36.28
2023-08-14T13:46:55.062Z,35.42
2023-08-14T13:51:01.552Z,37.24
2023-08-14T13:55:05.316Z,35.15
2023-08-14T13:59:09.273Z,35.55
2023-08-14T14:03:12.728Z,34.63
2023-08-14T14:07:22.043Z,33.93
2023-08-14T14:11:26.299Z,34.49
2023-08-14T14:15:29.911Z,33.20
2023-08-14T14:19:33.094Z,33.70
2023-08-14T14:23:38.065Z,35.84
2023-08-14T14:27:41.566Z,33.70
2023-08-14T14:31:45.297Z,32.64
2023-08-14T14:35:50.682Z,34.36
2023-08-14T14:39:55.156Z,33.78
2023-08-14T14:43:58.341Z,32.86
2023-08-14T14:48:04.726Z,33.85
2023-08-14T14:52:08.405Z,33.50
2023-08-14T14:56:13.493Z,33.59
2023-08-14T15:00:17.795Z,33.44
2023-08-14T15:04:21.312Z,33.28
2023-08-14T15:08:27.176Z,33.77
2023-08-14T15:12:31.844Z,33.62
2023-08-14T15:16:34.942Z,31.61
2023-08-14T15:20:38.791Z,32.63
2023-08-14T15:24:41.945Z,32.52
2023-08-14T15:28:46.932Z,33.15
2023-08-14T15:32:50.384Z,33.00
2023-08-14T15:36:53.826Z,33.35
2023-08-14T15:40:58.452Z,32.60
2023-08-14T15:45:07.971Z,32.02
2023-08-14T15:49:12.025Z,33.43
2023-08-14T15:53:15.434Z,32.16
2023-08-14T15:57:18.745Z,32.82
2023-08-14T16:01:24.268Z,33.58
2023-08-14T16:05:27.654Z,31.86
2023-08-14T16:09:31.437Z,32.73
2023-08-14T16:13:35.275Z,32.51
2023-08-14T16:17:43.590Z,32.91
2023-08-14T16:21:46.862Z,32.99
2023-08-14T16:25:50.375Z,32.78
2023-08-14T16:29:53.424Z,32.05
2023-08-14T16:33:58.873Z,33.97
2023-08-14T16:38:06.083Z,32.70
2023-08-14T16:42:10.116Z,33.21
2023-08-14T16:46:13.464Z,33.33
2023-08-14T16:50:18.249Z,34.03
2023-08-14T16:54:21.643Z,33.36
2023-08-14T16:58:25.087Z,33.17
2023-08-14T17:02:28.531Z,34.05
2023-08-14T17:06:33.602Z,34.15
2023-08-14T17:10:37.772Z,33.53
2023-08-14T17:14:41.655Z,32.91
2023-08-14T17:18:44.800Z,32.67
2023-08-14T17:22:49.576Z,33.97
2023-08-14T17:26:53.306Z,34.79
2023-08-14T17:30:57.833Z,35.77
2023-08-14T17:35:01.057Z,36.16
2023-08-14T17:39:09.605Z,36.97
2023-08-14T17:43:14.178Z,38.96
2023-08-14T17:47:17.871Z,38.88
2023-08-14T17:51:21.659Z,39.01
2023-08-14T17:55:26.710Z,38.38
2023-08-14T17:59:37.431Z,39.00
2023-08-14T18:03:40.887Z,39.63
2023-08-14T18:07:45.456Z,39.36
2023-08-14T18:11:50.704Z,39.48
2023-08-14T18:15:54.281Z,39.52
2023-08-14T18:19:57.938Z,39.89
2023-08-14T18:24:12.026Z,39.50
2023-08-14T18:29:09.607Z,39.35
2023-08-14T18:33:14.754Z,40.11
2023-08-14T18:37:18.910Z,39.89
2023-08-14T18:41:22.381Z,40.85
2023-08-14T18:45:27.622Z,41.07
2023-08-14T18:49:32.660Z,41.06
2023-08-14T18:53:36.707Z,41.40
2023-08-14T18:57:40.394Z,41.36
2023-08-14T19:01:44.725Z,41.55
2023-08-14T19:05:50.138Z,41.61
2023-08-14T19:09:54.316Z,41.56
2023-08-14T19:13:57.513Z,42.08
2023-08-14T19:18:00.854Z,42.20
2023-08-14T19:22:06.519Z,42.77
2023-08-14T19:26:22.493Z,43.33
2023-08-14T19:30:31.534Z,42.70
2023-08-14T19:34:35.417Z,42.61
2023-08-14T19:38:40.503Z,43.14
2023-08-14T19:42:51.915Z,42.80
2023-08-14T19:46:55.158Z,42.22
2023-08-14T19:50:58.775Z,43.40
2023-08-14T19:55:04.746Z,43.33
2023-08-14T19:59:09.457Z,43.70
2023-08-14T20:03:13.305Z,43.62
2023-08-14T20:07:17.328Z,43.27
2023-08-14T20:11:22.808Z,43.16
2023-08-14T20:15:26.672Z,43.84
2023-08-14T20:19:30.269Z,43.46
2023-08-14T20:23:35.905Z,43.83
2023-08-14T20:27:40.987Z,43.51
2023-08-14T20:31:45.132Z,43.70
2023-08-14T20:35:48.931Z,43.54
2023-08-14T20:39:53.000Z,43.77
2023-08-14T20:43:57.965Z,43.57
2023-08-14T20:48:01.704Z,43.51
2023-08-14T20:52:06.712Z,43.35
2023-08-14T20:56:11.671Z,43.91
2023-08-14T21:00:18.011Z,43.92
2023-08-14T21:04:21.617Z,44.45
2023-08-14T21:08:25.258Z,44.46
2023-08-14T21:12:32.049Z,44.89
2023-08-14T21:16:36.899Z,44.26
2023-08-14T21:20:44.671Z,44.76
2023-08-14T21:24:47.876Z,44.91
2023-08-14T21:28:51.705Z,45.37
2023-08-14T21:32:56.983Z,45.02
2023-08-14T21:37:00.528Z,45.44
2023-08-14T21:41:05.423Z,45.47
2023-08-14T21:45:14.232Z,45.39
2023-08-14T21:49:19.104Z,45.37
2023-08-14T21:53:22.752Z,45.47
2023-08-14T21:57:28.564Z,45.79
2023-08-14T22:01:32.535Z,46.51
2023-08-14T22:05:37.687Z,46.62
2023-08-14T22:09:41.523Z,46.26
2023-08-14T22:13:46.913Z,46.93
2023-08-14T22:17:52.475Z,47.20
2023-08-14T22:21:57.512Z,46.78
2023-08-14T22:26:01.241Z,47.63
2023-08-14T22:30:05.337Z,47.69
2023-08-14T22:34:10.799Z,47.46
2023-08-14T22:38:15.889Z,47.55
2023-08-14T22:42:19.716Z,47.72
2023-08-14T22:46:23.540Z,47.81
2023-08-14T22:50:27.256Z,48.09
2023-08-14T22:54:32.099Z,48.43
2023-08-14T22:58:35.694Z,48.02
2023-08-14T23:02:40.443Z,47.91
2023-08-14T23:06:46.657Z,47.99
2023-08-14T23:10:52.406Z,48.76
2023-08-14T23:14:57.755Z,49.14
2023-08-14T23:19:02.176Z,48.87
2023-08-14T23:23:07.548Z,48.96
2023-08-14T23:27:12.551Z,48.98
2023-08-14T23:31:16.098Z,49.06
2023-08-14T23:35:19.678Z,50.88
2023-08-14T23:39:23.255Z,51.26
2023-08-14T23:43:28.629Z,51.00
2023-08-14T23:47:32.036Z,50.96
2023-08-14T23:51:35.711Z,51.13
2023-08-14T23:55:39.672Z,50.93
2023-08-14T23:59:44.677Z,51.29
